createdAt,value
2023-05-14T00:00:17.142Z,1014.93
2023-05-14T00:00:47.701Z,1014.93
2023-05-14T00:01:15.539Z,1014.83
2023-05-14T00:01:47.219Z,1014.83
2023-05-14T00:02:17.551Z,1014.73
2023-05-14T00:02:49.266Z,1014.73
2023-05-14T00:03:19.591Z,1014.73
2023-05-14T00:03:51.375Z,1014.73
2023-05-14T00:04:21.684Z,1014.93
2023-05-14T00:04:53.311Z,1014.93
2023-05-14T00:05:25.050Z,1014.83
2023-05-14T00:05:55.183Z,1014.83
2023-05-14T00:06:25.556Z,1014.83
2023-05-14T00:06:57.315Z,1014.83
2023-05-14T00:07:28.049Z,1014.83
2023-05-14T00:07:59.223Z,1014.83
2023-05-14T00:08:29.531Z,1014.83
2023-05-14T00:09:01.395Z,1014.83
2023-05-14T00:09:31.577Z,1014.73
2023-05-14T00:10:04.465Z,1014.83
2023-05-14T00:10:34.544Z,1014.83
2023-05-14T00:11:05.512Z,1014.93
2023-05-14T00:11:35.556Z,1014.93
2023-05-14T00:12:07.234Z,1014.83
2023-05-14T00:12:37.508Z,1014.83
2023-05-14T00:13:09.204Z,1014.73
2023-05-14T00:13:39.488Z,1014.73
2023-05-14T00:14:11.188Z,1014.83
2023-05-14T00:14:41.470Z,1014.83
2023-05-14T00:15:15.188Z,1014.63
2023-05-14T00:15:44.555Z,1014.63
2023-05-14T00:16:15.277Z,1014.73
2023-05-14T00:16:46.197Z,1014.73
2023-05-14T00:17:17.310Z,1014.93
2023-05-14T00:17:47.559Z,1014.93
2023-05-14T00:18:19.361Z,1014.73
2023-05-14T00:18:49.509Z,1014.73
2023-05-14T00:19:21.241Z,1014.53
2023-05-14T00:19:51.529Z,1014.53
2023-05-14T00:20:24.060Z,1014.63
2023-05-14T00:20:54.517Z,1014.63
2023-05-14T00:21:25.748Z,1014.63
2023-05-14T00:21:55.862Z,1014.63
2023-05-14T00:22:27.200Z,1014.63
2023-05-14T00:22:57.633Z,1014.63
2023-05-14T00:23:29.869Z,1014.63
2023-05-14T00:23:59.595Z,1014.63
2023-05-14T00:24:31.206Z,1014.73
2023-05-14T00:25:02.546Z,1014.73
2023-05-14T00:25:33.339Z,1014.63
2023-05-14T00:26:04.538Z,1014.53
2023-05-14T00:26:36.929Z,1014.53
2023-05-14T00:27:05.471Z,1014.42
2023-05-14T00:27:36.997Z,1014.42
2023-05-14T00:28:08.377Z,1014.73
2023-05-14T00:28:38.509Z,1014.73
2023-05-14T00:29:10.238Z,1014.63
2023-05-14T00:29:40.547Z,1014.63
2023-05-14T00:30:14.438Z,1014.73
2023-05-14T00:30:42.710Z,1014.73
2023-05-14T00:31:15.501Z,1014.63
2023-05-14T00:31:45.008Z,1014.63
2023-05-14T00:32:16.287Z,1014.53
2023-05-14T00:32:46.759Z,1014.53
2023-05-14T00:33:18.252Z,1014.53
2023-05-14T00:33:48.556Z,1014.53
2023-05-14T00:34:20.215Z,1014.73
2023-05-14T00:34:50.609Z,1014.73
2023-05-14T00:35:23.105Z,1014.63
2023-05-14T00:35:52.658Z,1014.63
2023-05-14T00:36:25.187Z,1014.53
2023-05-14T00:36:55.192Z,1014.53
2023-05-14T00:37:26.291Z,1014.63
2023-05-14T00:37:56.555Z,1014.63
2023-05-14T00:38:28.240Z,1014.42
2023-05-14T00:38:58.496Z,1014.42
2023-05-14T00:39:30.211Z,1014.63
2023-05-14T00:40:01.717Z,1014.63
2023-05-14T00:40:39.262Z,1014.42
2023-05-14T00:41:03.041Z,1014.42
2023-05-14T00:41:35.311Z,1014.42
2023-05-14T00:42:04.779Z,1014.42
2023-05-14T00:42:38.548Z,1014.42
2023-05-14T00:43:06.478Z,1014.53
2023-05-14T00:43:37.621Z,1014.53
2023-05-14T00:44:09.169Z,1014.32
2023-05-14T00:44:39.485Z,1014.32
2023-05-14T00:45:12.172Z,1014.53
2023-05-14T00:45:41.541Z,1014.53
2023-05-14T00:46:13.213Z,1014.42
2023-05-14T00:46:44.462Z,1014.42
2023-05-14T00:47:14.521Z,1014.53
2023-05-14T00:47:46.226Z,1014.53
2023-05-14T00:48:16.839Z,1014.53
2023-05-14T00:48:48.203Z,1014.53
2023-05-14T00:49:18.450Z,1014.53
2023-05-14T00:49:50.273Z,1014.53
2023-05-14T00:50:21.789Z,1014.53
2023-05-14T00:50:52.171Z,1014.53
2023-05-14T00:51:22.622Z,1014.42
2023-05-14T00:51:55.114Z,1014.42
2023-05-14T00:52:24.768Z,1014.53
2023-05-14T00:52:56.267Z,1014.53
2023-05-14T00:53:26.450Z,1014.32
2023-05-14T00:53:58.151Z,1014.32
2023-05-14T00:54:29.142Z,1014.32
2023-05-14T00:55:00.193Z,1014.32
2023-05-14T00:55:31.019Z,1014.22
2023-05-14T00:56:02.148Z,1014.22
2023-05-14T00:56:32.479Z,1014.53
2023-05-14T00:57:05.185Z,1014.22
2023-05-14T00:57:34.812Z,1014.22
2023-05-14T00:58:06.211Z,1014.32
2023-05-14T00:58:36.412Z,1014.32
2023-05-14T00:59:08.153Z,1014.63
2023-05-14T00:59:38.485Z,1014.63
2023-05-14T01:00:17.333Z,1014.22
2023-05-14T01:00:52.089Z,1014.22
2023-05-14T01:01:12.272Z,1014.12
2023-05-14T01:01:42.542Z,1014.12
2023-05-14T01:02:15.259Z,1014.12
2023-05-14T01:02:44.922Z,1014.12
2023-05-14T01:03:15.611Z,1014.22
2023-05-14T01:03:48.075Z,1014.22
2023-05-14T01:04:17.501Z,1014.42
2023-05-14T01:04:49.246Z,1014.42
2023-05-14T01:05:19.942Z,1014.12
2023-05-14T01:05:51.149Z,1014.12
2023-05-14T01:06:21.464Z,1014.12
2023-05-14T01:06:53.220Z,1014.12
2023-05-14T01:07:24.528Z,1014.12
2023-05-14T01:07:55.588Z,1014.12
2023-05-14T01:08:25.515Z,1014.32
2023-05-14T01:08:57.208Z,1014.32
2023-05-14T01:09:27.439Z,1014.22
2023-05-14T01:09:59.227Z,1014.22
2023-05-14T01:10:30.780Z,1014.32
2023-05-14T01:11:01.292Z,1014.32
2023-05-14T01:11:31.435Z,1014.22
2023-05-14T01:12:03.258Z,1014.42
2023-05-14T01:12:34.471Z,1014.42
2023-05-14T01:13:05.700Z,1014.02
2023-05-14T01:13:35.453Z,1014.02
2023-05-14T01:14:07.149Z,1014.32
2023-05-14T01:14:38.003Z,1014.32
2023-05-14T01:15:10.400Z,1014.02
2023-05-14T01:15:39.566Z,1014.02
2023-05-14T01:16:11.236Z,1014.12
2023-05-14T01:16:41.526Z,1014.12
2023-05-14T01:17:13.830Z,1014.12
2023-05-14T01:17:44.473Z,1014.12
2023-05-14T01:18:15.281Z,1014.12
2023-05-14T01:18:45.483Z,1014.12
2023-05-14T01:19:17.346Z,1014.42
2023-05-14T01:19:47.542Z,1014.42
2023-05-14T01:20:19.708Z,1014.22
2023-05-14T01:20:49.517Z,1014.22
2023-05-14T01:21:21.353Z,1014.22
2023-05-14T01:21:51.476Z,1014.22
2023-05-14T01:22:23.223Z,1014.12
2023-05-14T01:22:54.503Z,1014.12
2023-05-14T01:23:25.524Z,1014.02
2023-05-14T01:23:55.558Z,1014.02
2023-05-14T01:24:27.174Z,1014.22
2023-05-14T01:24:57.488Z,1014.22
2023-05-14T01:25:29.631Z,1014.22
2023-05-14T01:25:59.531Z,1014.22
2023-05-14T01:26:31.211Z,1014.32
2023-05-14T01:27:01.707Z,1014.32
2023-05-14T01:27:33.140Z,1014.22
2023-05-14T01:28:04.493Z,1014.12
2023-05-14T01:28:35.900Z,1014.12
2023-05-14T01:29:05.441Z,1014.22
2023-05-14T01:29:37.114Z,1014.22
2023-05-14T01:30:08.402Z,1014.12
2023-05-14T01:30:39.664Z,1014.12
2023-05-14T01:31:09.529Z,1014.12
2023-05-14T01:31:41.226Z,1014.12
2023-05-14T01:32:11.707Z,1014.12
2023-05-14T01:32:43.141Z,1014.12
2023-05-14T01:33:14.449Z,1014.22
2023-05-14T01:33:45.441Z,1014.22
2023-05-14T01:34:15.471Z,1014.02
2023-05-14T01:34:47.383Z,1014.02
2023-05-14T01:35:18.086Z,1014.22
2023-05-14T01:35:49.126Z,1014.22
2023-05-14T01:36:19.434Z,1014.22
2023-05-14T01:36:51.211Z,1014.22
2023-05-14T01:37:22.658Z,1014.12
2023-05-14T01:37:53.396Z,1014.12
2023-05-14T01:38:24.461Z,1014.22
2023-05-14T01:38:55.173Z,1014.22
2023-05-14T01:39:25.520Z,1014.02
2023-05-14T01:39:57.189Z,1014.02
2023-05-14T01:40:40.520Z,1013.82
2023-05-14T01:40:59.178Z,1013.82
2023-05-14T01:41:29.999Z,1014.12
2023-05-14T01:42:01.344Z,1014.12
2023-05-14T01:42:31.451Z,1014.12
2023-05-14T01:43:03.313Z,1013.92
2023-05-14T01:43:34.509Z,1013.92
2023-05-14T01:44:06.097Z,1014.02
2023-05-14T01:44:35.680Z,1014.02
2023-05-14T01:45:08.420Z,1014.22
2023-05-14T01:45:37.644Z,1014.22
2023-05-14T01:46:09.177Z,1014.02
2023-05-14T01:46:39.529Z,1014.02
2023-05-14T01:47:10.463Z,1013.92
2023-05-14T01:47:41.513Z,1013.92
2023-05-14T01:48:13.198Z,1014.12
2023-05-14T01:48:44.448Z,1014.12
2023-05-14T01:49:15.199Z,1014.02
2023-05-14T01:49:45.466Z,1014.02
2023-05-14T01:50:17.814Z,1014.12
2023-05-14T01:50:47.468Z,1014.12
2023-05-14T01:51:19.767Z,1014.02
2023-05-14T01:51:49.469Z,1014.02
2023-05-14T01:52:21.221Z,1014.02
2023-05-14T01:52:51.481Z,1014.02
2023-05-14T01:53:23.233Z,1013.92
2023-05-14T01:53:54.405Z,1013.92
2023-05-14T01:54:25.560Z,1014.02
2023-05-14T01:54:56.066Z,1014.02
2023-05-14T01:55:27.655Z,1014.02
2023-05-14T01:55:57.419Z,1014.02
2023-05-14T01:56:29.142Z,1014.12
2023-05-14T01:56:59.512Z,1014.12
2023-05-14T01:57:31.649Z,1014.12
2023-05-14T01:58:01.479Z,1014.12
2023-05-14T01:58:33.142Z,1014.02
2023-05-14T01:59:04.501Z,1013.92
2023-05-14T01:59:36.439Z,1013.92
2023-05-14T02:00:08.594Z,1014.12
2023-05-14T02:00:41.607Z,1014.12
2023-05-14T02:01:10.394Z,1014.02
2023-05-14T02:01:39.520Z,1014.02
2023-05-14T02:02:10.110Z,1014.02
2023-05-14T02:02:40.554Z,1014.02
2023-05-14T02:03:12.260Z,1013.82
2023-05-14T02:03:42.592Z,1013.82
2023-05-14T02:04:15.730Z,1013.92
2023-05-14T02:04:44.729Z,1013.92
2023-05-14T02:05:17.259Z,1013.92
2023-05-14T02:05:47.208Z,1013.92
2023-05-14T02:06:18.454Z,1013.92
2023-05-14T02:06:48.480Z,1013.92
2023-05-14T02:07:20.238Z,1013.92
2023-05-14T02:07:50.490Z,1013.92
2023-05-14T02:08:22.308Z,1013.82
2023-05-14T02:08:52.592Z,1013.82
2023-05-14T02:09:25.118Z,1013.92
2023-05-14T02:09:54.602Z,1013.92
2023-05-14T02:10:26.612Z,1014.02
2023-05-14T02:10:56.494Z,1014.02
2023-05-14T02:11:28.206Z,1013.92
2023-05-14T02:11:58.492Z,1013.92
2023-05-14T02:12:30.123Z,1014.02
2023-05-14T02:13:00.567Z,1014.02
2023-05-14T02:13:32.138Z,1013.82
2023-05-14T02:14:02.585Z,1014.22
2023-05-14T02:14:35.219Z,1014.22
2023-05-14T02:15:06.722Z,1014.02
2023-05-14T02:15:36.265Z,1014.02
2023-05-14T02:16:06.513Z,1014.02
2023-05-14T02:16:38.148Z,1014.02
2023-05-14T02:17:08.428Z,1013.92
2023-05-14T02:17:40.735Z,1013.92
2023-05-14T02:18:10.521Z,1013.92
2023-05-14T02:18:42.156Z,1013.92
2023-05-14T02:19:12.529Z,1014.02
2023-05-14T02:19:45.122Z,1014.02
2023-05-14T02:20:15.010Z,1014.12
2023-05-14T02:20:48.269Z,1014.12
2023-05-14T02:21:16.507Z,1013.92
2023-05-14T02:21:48.249Z,1013.92
2023-05-14T02:22:18.453Z,1013.92
2023-05-14T02:22:50.140Z,1013.92
2023-05-14T02:23:25.670Z,1014.02
2023-05-14T02:23:52.190Z,1014.02
2023-05-14T02:24:22.712Z,1014.02
2023-05-14T02:24:55.227Z,1014.02
2023-05-14T02:25:25.247Z,1014.02
2023-05-14T02:25:56.270Z,1014.02
2023-05-14T02:26:26.565Z,1013.92
2023-05-14T02:26:58.172Z,1013.92
2023-05-14T02:27:28.481Z,1013.71
2023-05-14T02:28:00.168Z,1013.71
2023-05-14T02:28:31.257Z,1013.92
2023-05-14T02:29:02.168Z,1013.92
2023-05-14T02:29:32.433Z,1013.92
2023-05-14T02:30:06.486Z,1013.92
2023-05-14T02:30:34.468Z,1013.92
2023-05-14T02:31:06.862Z,1013.92
2023-05-14T02:31:36.746Z,1013.92
2023-05-14T02:32:08.432Z,1013.71
2023-05-14T02:32:38.697Z,1013.71
2023-05-14T02:33:10.294Z,1014.02
2023-05-14T02:33:40.503Z,1014.02
2023-05-14T02:34:12.260Z,1013.92
2023-05-14T02:34:42.436Z,1013.92
2023-05-14T02:35:15.666Z,1013.92
2023-05-14T02:35:44.856Z,1013.92
2023-05-14T02:36:16.140Z,1013.82
2023-05-14T02:36:46.461Z,1013.82
2023-05-14T02:37:18.188Z,1013.92
2023-05-14T02:37:48.446Z,1013.92
2023-05-14T02:38:20.187Z,1013.82
2023-05-14T02:38:50.507Z,1013.82
2023-05-14T02:39:22.205Z,1014.02
2023-05-14T02:39:52.538Z,1014.02
2023-05-14T02:40:26.604Z,1014.02
2023-05-14T02:40:54.501Z,1014.02
2023-05-14T02:41:26.122Z,1013.82
2023-05-14T02:41:57.086Z,1013.82
2023-05-14T02:42:28.319Z,1014.02
2023-05-14T02:42:58.895Z,1014.02
2023-05-14T02:43:30.166Z,1013.82
2023-05-14T02:44:00.434Z,1013.82
2023-05-14T02:44:32.838Z,1013.71
2023-05-14T02:45:03.567Z,1013.92
2023-05-14T02:45:35.626Z,1013.92
2023-05-14T02:46:04.762Z,1013.71
2023-05-14T02:46:35.688Z,1013.71
2023-05-14T02:47:06.481Z,1013.82
2023-05-14T02:47:38.226Z,1013.82
2023-05-14T02:48:09.251Z,1013.82
2023-05-14T02:48:39.957Z,1013.82
2023-05-14T02:49:11.180Z,1013.92
2023-05-14T02:49:41.413Z,1013.92
2023-05-14T02:50:13.623Z,1013.82
2023-05-14T02:50:44.431Z,1013.82
2023-05-14T02:51:16.054Z,1013.71
2023-05-14T02:51:45.917Z,1013.71
2023-05-14T02:52:17.382Z,1013.61
2023-05-14T02:52:47.690Z,1013.61
2023-05-14T02:53:19.158Z,1013.51
2023-05-14T02:53:49.429Z,1013.51
2023-05-14T02:54:21.139Z,1013.61
2023-05-14T02:54:51.412Z,1013.61
2023-05-14T02:55:23.946Z,1013.71
2023-05-14T02:55:54.436Z,1013.71
2023-05-14T02:56:25.535Z,1013.82
2023-05-14T02:56:55.430Z,1013.82
2023-05-14T02:57:27.166Z,1013.61
2023-05-14T02:57:57.587Z,1013.61
2023-05-14T02:58:29.105Z,1013.92
2023-05-14T02:58:59.540Z,1013.92
2023-05-14T02:59:31.155Z,1013.71
2023-05-14T03:00:03.044Z,1013.71
2023-05-14T03:00:33.501Z,1013.92
2023-05-14T03:01:04.592Z,1013.61
2023-05-14T03:01:35.374Z,1013.61
2023-05-14T03:02:06.066Z,1014.02
2023-05-14T03:02:37.317Z,1014.02
2023-05-14T03:03:07.719Z,1013.71
2023-05-14T03:03:39.650Z,1013.71
2023-05-14T03:04:10.066Z,1013.92
2023-05-14T03:04:42.020Z,1013.92
2023-05-14T03:05:12.257Z,1013.61
2023-05-14T03:05:43.277Z,1013.61
2023-05-14T03:06:14.530Z,1013.71
2023-05-14T03:06:45.580Z,1013.71
2023-05-14T03:07:15.538Z,1013.71
2023-05-14T03:07:47.352Z,1013.71
2023-05-14T03:08:17.585Z,1013.71
2023-05-14T03:08:49.319Z,1013.71
2023-05-14T03:09:19.538Z,1013.71
2023-05-14T03:09:51.331Z,1013.71
2023-05-14T03:10:22.872Z,1013.71
2023-05-14T03:10:53.510Z,1013.71
2023-05-14T03:11:25.096Z,1013.71
2023-05-14T03:11:55.127Z,1013.71
2023-05-14T03:12:25.461Z,1013.71
2023-05-14T03:12:57.143Z,1013.71
2023-05-14T03:13:27.544Z,1013.71
2023-05-14T03:13:59.590Z,1013.71
2023-05-14T03:14:29.597Z,1013.71
2023-05-14T03:15:02.908Z,1013.71
2023-05-14T03:15:32.008Z,1013.71
2023-05-14T03:16:03.332Z,1013.61
2023-05-14T03:16:34.507Z,1013.61
2023-05-14T03:17:05.607Z,1013.92
2023-05-14T03:17:35.556Z,1013.92
2023-05-14T03:18:07.810Z,1013.82
2023-05-14T03:18:37.831Z,1013.82
2023-05-14T03:19:09.195Z,1013.92
2023-05-14T03:19:39.484Z,1013.92
2023-05-14T03:20:11.765Z,1013.92
2023-05-14T03:20:41.588Z,1013.92
2023-05-14T03:21:13.122Z,1013.71
2023-05-14T03:21:44.468Z,1013.71
2023-05-14T03:22:15.494Z,1013.82
2023-05-14T03:22:46.200Z,1013.82
2023-05-14T03:23:17.387Z,1013.71
2023-05-14T03:23:47.647Z,1013.71
2023-05-14T03:24:19.370Z,1013.61
2023-05-14T03:24:49.512Z,1013.61
2023-05-14T03:25:21.715Z,1013.61
2023-05-14T03:25:51.474Z,1013.61
2023-05-14T03:26:23.477Z,1013.71
2023-05-14T03:26:54.711Z,1013.71
2023-05-14T03:27:25.897Z,1013.61
2023-05-14T03:27:55.696Z,1013.61
2023-05-14T03:28:27.362Z,1013.71
2023-05-14T03:28:58.130Z,1013.71
2023-05-14T03:29:29.308Z,1013.71
2023-05-14T03:29:59.655Z,1013.71
2023-05-14T03:30:32.442Z,1013.82
2023-05-14T03:31:01.719Z,1013.82
2023-05-14T03:31:33.915Z,1013.92
2023-05-14T03:32:04.787Z,1013.71
2023-05-14T03:32:35.525Z,1013.71
2023-05-14T03:33:05.814Z,1013.71
2023-05-14T03:33:37.385Z,1013.71
2023-05-14T03:34:07.573Z,1013.82
2023-05-14T03:34:39.292Z,1013.82
2023-05-14T03:35:10.096Z,1013.82
2023-05-14T03:35:41.590Z,1013.82
2023-05-14T03:36:11.580Z,1013.71
2023-05-14T03:36:43.425Z,1013.71
2023-05-14T03:37:14.573Z,1013.82
2023-05-14T03:37:45.587Z,1013.82
2023-05-14T03:38:15.568Z,1014.02
2023-05-14T03:38:47.383Z,1014.02
2023-05-14T03:39:17.615Z,1013.71
2023-05-14T03:39:49.412Z,1013.71
2023-05-14T03:40:20.167Z,1013.71
2023-05-14T03:40:51.313Z,1013.71
2023-05-14T03:41:21.584Z,1013.71
2023-05-14T03:41:53.357Z,1013.71
2023-05-14T03:42:24.737Z,1013.92
2023-05-14T03:42:55.320Z,1013.92
2023-05-14T03:43:25.683Z,1013.92
2023-05-14T03:43:57.289Z,1013.92
2023-05-14T03:44:27.563Z,1013.71
2023-05-14T03:44:59.902Z,1013.71
2023-05-14T03:45:30.534Z,1013.82
2023-05-14T03:46:01.493Z,1013.82
2023-05-14T03:46:31.620Z,1013.92
2023-05-14T03:47:02.714Z,1013.82
2023-05-14T03:47:34.639Z,1013.82
2023-05-14T03:48:05.735Z,1013.71
2023-05-14T03:48:35.680Z,1013.71
2023-05-14T03:49:07.864Z,1013.71
2023-05-14T03:49:37.579Z,1013.71
2023-05-14T03:50:09.759Z,1013.82
2023-05-14T03:50:39.866Z,1013.82
2023-05-14T03:51:11.302Z,1013.71
2023-05-14T03:51:41.648Z,1013.71
2023-05-14T03:52:13.269Z,1013.51
2023-05-14T03:52:44.608Z,1013.51
2023-05-14T03:53:15.277Z,1013.61
2023-05-14T03:53:45.582Z,1013.61
2023-05-14T03:54:17.504Z,1013.82
2023-05-14T03:54:47.616Z,1013.82
2023-05-14T03:55:19.789Z,1013.61
2023-05-14T03:55:50.160Z,1013.61
2023-05-14T03:56:21.391Z,1013.71
2023-05-14T03:56:51.593Z,1013.71
2023-05-14T03:57:23.441Z,1013.51
2023-05-14T03:57:54.679Z,1013.51
2023-05-14T03:58:26.231Z,1013.41
2023-05-14T03:58:55.647Z,1013.41
2023-05-14T03:59:27.274Z,1013.41
2023-05-14T03:59:57.610Z,1013.41
2023-05-14T04:00:30.752Z,1013.71
2023-05-14T04:01:02.370Z,1013.71
2023-05-14T04:01:31.306Z,1013.82
2023-05-14T04:02:01.579Z,1013.82
2023-05-14T04:02:33.825Z,1013.41
2023-05-14T04:03:04.708Z,1013.51
2023-05-14T04:03:35.424Z,1013.51
2023-05-14T04:04:05.663Z,1013.51
2023-05-14T04:04:37.341Z,1013.51
2023-05-14T04:05:08.133Z,1013.51
2023-05-14T04:05:39.253Z,1013.51
2023-05-14T04:06:09.688Z,1013.61
2023-05-14T04:06:41.285Z,1013.61
2023-05-14T04:07:11.565Z,1013.61
2023-05-14T04:07:43.204Z,1013.61
2023-05-14T04:08:14.655Z,1013.61
2023-05-14T04:08:45.558Z,1013.61
2023-05-14T04:09:16.284Z,1013.92
2023-05-14T04:09:47.520Z,1013.92
2023-05-14T04:10:18.169Z,1013.61
2023-05-14T04:10:49.289Z,1013.61
2023-05-14T04:11:19.581Z,1013.82
2023-05-14T04:11:52.000Z,1013.82
2023-05-14T04:12:21.589Z,1013.61
2023-05-14T04:12:53.547Z,1013.61
2023-05-14T04:13:24.621Z,1013.61
2023-05-14T04:13:55.295Z,1013.61
2023-05-14T04:14:25.617Z,1013.82
2023-05-14T04:14:57.296Z,1013.82
2023-05-14T04:15:28.509Z,1013.71
2023-05-14T04:15:59.864Z,1013.71
2023-05-14T04:16:29.609Z,1013.71
2023-05-14T04:17:01.421Z,1013.71
2023-05-14T04:17:31.646Z,1013.82
2023-05-14T04:18:03.402Z,1013.61
2023-05-14T04:18:35.280Z,1013.61
2023-05-14T04:19:05.622Z,1013.61
2023-05-14T04:19:35.633Z,1013.61
2023-05-14T04:20:07.838Z,1013.34
2023-05-14T04:20:39.369Z,1013.34
2023-05-14T04:21:09.275Z,1013.61
2023-05-14T04:21:39.572Z,1013.61
2023-05-14T04:22:11.243Z,1013.61
2023-05-14T04:22:42.222Z,1013.61
2023-05-14T04:23:13.307Z,1013.61
2023-05-14T04:23:44.588Z,1013.61
2023-05-14T04:24:15.256Z,1013.51
2023-05-14T04:24:46.075Z,1013.51
2023-05-14T04:25:18.521Z,1013.61
2023-05-14T04:25:47.674Z,1013.61
2023-05-14T04:26:19.334Z,1013.82
2023-05-14T04:26:49.659Z,1013.82
2023-05-14T04:27:21.404Z,1013.71
2023-05-14T04:27:51.548Z,1013.71
2023-05-14T04:28:23.327Z,1013.71
2023-05-14T04:28:54.606Z,1013.71
2023-05-14T04:29:25.916Z,1013.71
2023-05-14T04:29:55.563Z,1013.71
2023-05-14T04:30:28.473Z,1013.51
2023-05-14T04:30:57.701Z,1013.51
2023-05-14T04:31:29.393Z,1013.61
2023-05-14T04:31:59.547Z,1013.61
2023-05-14T04:32:31.484Z,1013.71
2023-05-14T04:33:01.625Z,1013.71
2023-05-14T04:33:33.313Z,1013.61
2023-05-14T04:34:04.575Z,1013.82
2023-05-14T04:34:36.185Z,1013.82
2023-05-14T04:35:06.203Z,1013.71
2023-05-14T04:35:37.247Z,1013.71
2023-05-14T04:36:08.195Z,1013.82
2023-05-14T04:36:39.288Z,1013.82
2023-05-14T04:37:09.556Z,1013.71
2023-05-14T04:37:41.292Z,1013.71
2023-05-14T04:38:11.614Z,1013.71
2023-05-14T04:38:43.345Z,1013.71
2023-05-14T04:39:14.576Z,1013.61
2023-05-14T04:39:45.673Z,1013.61
2023-05-14T04:40:16.266Z,1013.61
2023-05-14T04:40:49.528Z,1013.61
2023-05-14T04:41:17.788Z,1013.51
2023-05-14T04:41:49.268Z,1013.51
2023-05-14T04:42:19.607Z,1013.41
2023-05-14T04:42:51.800Z,1013.41
2023-05-14T04:43:21.621Z,1013.61
2023-05-14T04:43:53.525Z,1013.61
2023-05-14T04:44:24.567Z,1013.61
2023-05-14T04:44:55.273Z,1013.61
2023-05-14T04:45:27.154Z,1013.61
2023-05-14T04:45:57.412Z,1013.61
2023-05-14T04:46:27.973Z,1013.51
2023-05-14T04:46:58.914Z,1013.51
2023-05-14T04:47:29.656Z,1013.41
2023-05-14T04:48:01.663Z,1013.41
2023-05-14T04:48:31.536Z,1013.51
2023-05-14T04:49:03.410Z,1013.61
2023-05-14T04:49:34.786Z,1013.61
2023-05-14T04:50:06.347Z,1013.51
2023-05-14T04:50:35.617Z,1013.51
2023-05-14T04:51:07.369Z,1013.61
2023-05-14T04:51:37.607Z,1013.61
2023-05-14T04:52:09.254Z,1013.61
2023-05-14T04:52:39.608Z,1013.61
2023-05-14T04:53:11.314Z,1013.61
2023-05-14T04:53:41.918Z,1013.61
2023-05-14T04:54:13.328Z,1013.82
2023-05-14T04:54:44.623Z,1013.82
2023-05-14T04:55:15.787Z,1013.51
2023-05-14T04:55:45.566Z,1013.51
2023-05-14T04:56:17.825Z,1013.51
2023-05-14T04:56:47.627Z,1013.51
2023-05-14T04:57:19.234Z,1013.61
2023-05-14T04:57:49.578Z,1013.61
2023-05-14T04:58:21.266Z,1013.61
2023-05-14T04:58:51.580Z,1013.61
2023-05-14T04:59:23.374Z,1013.61
2023-05-14T04:59:54.577Z,1013.61
2023-05-14T05:00:27.530Z,1013.61
2023-05-14T05:01:00.500Z,1013.61
2023-05-14T05:01:27.307Z,1013.51
2023-05-14T05:01:57.652Z,1013.51
2023-05-14T05:02:30.152Z,1013.61
2023-05-14T05:03:00.638Z,1013.61
2023-05-14T05:03:31.271Z,1013.61
2023-05-14T05:04:01.641Z,1013.61
2023-05-14T05:04:33.292Z,1013.61
2023-05-14T05:05:05.475Z,1013.61
2023-05-14T05:05:37.065Z,1013.61
2023-05-14T05:06:05.563Z,1013.61
2023-05-14T05:06:36.669Z,1013.61
2023-05-14T05:07:08.325Z,1013.61
2023-05-14T05:07:38.580Z,1013.61
2023-05-14T05:08:10.808Z,1013.41
2023-05-14T05:08:40.557Z,1013.41
2023-05-14T05:09:12.257Z,1013.82
2023-05-14T05:09:43.229Z,1013.82
2023-05-14T05:10:15.734Z,1013.71
2023-05-14T05:10:44.843Z,1013.71
2023-05-14T05:11:16.315Z,1013.71
2023-05-14T05:11:46.663Z,1013.71
2023-05-14T05:12:18.366Z,1013.71
2023-05-14T05:12:48.568Z,1013.71
2023-05-14T05:13:20.298Z,1013.71
2023-05-14T05:13:51.043Z,1013.71
2023-05-14T05:14:23.116Z,1013.61
2023-05-14T05:14:52.857Z,1013.61
2023-05-14T05:15:26.651Z,1013.61
2023-05-14T05:15:54.686Z,1013.61
2023-05-14T05:16:27.054Z,1013.82
2023-05-14T05:16:56.762Z,1013.82
2023-05-14T05:17:28.417Z,1013.71
2023-05-14T05:17:58.690Z,1013.71
2023-05-14T05:18:30.299Z,1013.61
2023-05-14T05:19:00.868Z,1013.61
2023-05-14T05:19:42.483Z,1013.71
2023-05-14T05:20:03.192Z,1013.71
2023-05-14T05:20:38.961Z,1013.71
2023-05-14T05:21:04.917Z,1013.61
2023-05-14T05:21:37.081Z,1013.61
2023-05-14T05:22:06.554Z,1013.82
2023-05-14T05:22:38.296Z,1013.82
2023-05-14T05:23:09.350Z,1013.82
2023-05-14T05:23:40.286Z,1013.82
2023-05-14T05:24:10.609Z,1013.71
2023-05-14T05:24:42.308Z,1013.71
2023-05-14T05:25:13.351Z,1013.61
2023-05-14T05:25:45.935Z,1013.61
2023-05-14T05:26:14.600Z,1013.71
2023-05-14T05:26:46.253Z,1013.71
2023-05-14T05:27:17.252Z,1013.71
2023-05-14T05:27:48.284Z,1013.71
2023-05-14T05:28:18.710Z,1013.61
2023-05-14T05:28:50.324Z,1013.61
2023-05-14T05:29:20.722Z,1013.71
2023-05-14T05:29:53.401Z,1013.71
2023-05-14T05:30:24.594Z,1013.92
2023-05-14T05:30:55.551Z,1013.92
2023-05-14T05:31:25.183Z,1013.82
2023-05-14T05:31:56.556Z,1013.82
2023-05-14T05:32:26.797Z,1013.61
2023-05-14T05:32:58.527Z,1013.61
2023-05-14T05:33:28.770Z,1013.82
2023-05-14T05:34:00.467Z,1013.82
2023-05-14T05:34:30.765Z,1013.61
2023-05-14T05:35:03.220Z,1013.61
2023-05-14T05:35:32.938Z,1013.51
2023-05-14T05:36:05.493Z,1013.51
2023-05-14T05:36:36.066Z,1013.51
2023-05-14T05:37:06.411Z,1013.51
2023-05-14T05:37:36.739Z,1013.51
2023-05-14T05:38:09.332Z,1013.61
2023-05-14T05:38:38.864Z,1013.61
2023-05-14T05:39:10.457Z,1013.51
2023-05-14T05:39:40.797Z,1013.51
2023-05-14T05:40:13.092Z,1013.51
2023-05-14T05:40:44.290Z,1013.51
2023-05-14T05:41:15.438Z,1013.51
2023-05-14T05:41:45.089Z,1013.51
2023-05-14T05:42:16.416Z,1013.34
2023-05-14T05:42:46.565Z,1013.34
2023-05-14T05:43:19.344Z,1013.41
2023-05-14T05:43:48.718Z,1013.41
2023-05-14T05:44:20.662Z,1013.51
2023-05-14T05:44:50.759Z,1013.51
2023-05-14T05:45:23.586Z,1013.61
2023-05-14T05:45:53.098Z,1013.61
2023-05-14T05:46:25.488Z,1013.41
2023-05-14T05:46:54.884Z,1013.41
2023-05-14T05:47:26.545Z,1013.51
2023-05-14T05:47:56.683Z,1013.51
2023-05-14T05:48:28.463Z,1013.41
2023-05-14T05:48:58.801Z,1013.41
2023-05-14T05:49:30.385Z,1013.61
2023-05-14T05:50:02.930Z,1013.61
2023-05-14T05:50:32.430Z,1013.41
2023-05-14T05:51:02.839Z,1013.71
2023-05-14T05:51:35.429Z,1013.71
2023-05-14T05:52:05.224Z,1013.51
2023-05-14T05:52:36.711Z,1013.51
2023-05-14T05:53:06.740Z,1013.51
2023-05-14T05:53:38.495Z,1013.51
2023-05-14T05:54:09.178Z,1013.41
2023-05-14T05:54:40.413Z,1013.41
2023-05-14T05:55:11.722Z,1013.61
2023-05-14T05:55:42.470Z,1013.61
2023-05-14T05:56:12.740Z,1013.51
2023-05-14T05:56:45.427Z,1013.51
2023-05-14T05:57:14.696Z,1013.51
2023-05-14T05:57:46.425Z,1013.51
2023-05-14T05:58:16.935Z,1013.51
2023-05-14T05:58:48.466Z,1013.51
2023-05-14T05:59:18.850Z,1013.41
2023-05-14T05:59:50.429Z,1013.41
2023-05-14T06:00:22.359Z,1013.61
2023-05-14T06:00:53.014Z,1013.61
2023-05-14T06:01:22.966Z,1013.61
2023-05-14T06:01:57.092Z,1013.61
2023-05-14T06:02:25.384Z,1013.71
2023-05-14T06:02:55.816Z,1013.71
2023-05-14T06:03:28.575Z,1013.61
2023-05-14T06:03:57.725Z,1013.61
2023-05-14T06:04:29.411Z,1013.41
2023-05-14T06:04:59.692Z,1013.41
2023-05-14T06:05:32.006Z,1013.51
2023-05-14T06:06:01.768Z,1013.51
2023-05-14T06:06:33.438Z,1013.71
2023-05-14T06:07:04.741Z,1013.51
2023-05-14T06:07:35.470Z,1013.51
2023-05-14T06:08:05.695Z,1013.41
2023-05-14T06:08:37.503Z,1013.41
2023-05-14T06:09:07.737Z,1013.51
2023-05-14T06:09:39.378Z,1013.51
2023-05-14T06:10:11.248Z,1013.71
2023-05-14T06:10:41.442Z,1013.71
2023-05-14T06:11:11.744Z,1013.61
2023-05-14T06:11:43.528Z,1013.61
2023-05-14T06:12:14.764Z,1013.71
2023-05-14T06:12:46.396Z,1013.71
2023-05-14T06:13:15.621Z,1013.61
2023-05-14T06:13:47.683Z,1013.61
2023-05-14T06:14:18.360Z,1013.71
2023-05-14T06:14:49.501Z,1013.71